sensor_id;sensor_type;location;lat;lon;timestamp;temperature;humidity
25933;DHT22;13731;51.166;4.474;2022-07-11T00:01:59;18.10;99.90
25933;DHT22;13731;51.166;4.474;2022-07-11T00:04:27;18.00;99.90
25933;DHT22;13731;51.166;4.474;2022-07-11T00:06:53;18.00;99.90
25933;DHT22;13731;51.166;4.474;2022-07-11T00:09:19;17.90;99.90
25933;DHT22;13731;51.166;4.474;2022-07-11T00:11:44;17.90;99.90
25933;DHT22;13731;51.166;4.474;2022-07-11T00:14:10;17.70;99.90
25933;DHT22;13731;51.166;4.474;2022-07-11T00:16:36;17.50;1.00
25933;DHT22;13731;51.166;4.474;2022-07-11T00:19:01;17.60;99.90
25933;DHT22;13731;51.166;4.474;2022-07-11T00:21:27;17.60;99.90
25933;DHT22;13731;51.166;4.474;2022-07-11T00:23:53;17.50;99.90
25933;DHT22;13731;51.166;4.474;2022-07-11T00:26:18;17.50;1.00
25933;DHT22;13731;51.166;4.474;2022-07-11T00:28:44;17.60;99.90
25933;DHT22;13731;51.166;4.474;2022-07-11T00:31:10;17.60;99.90
25933;DHT22;13731;51.166;4.474;2022-07-11T00:33:35;17.70;99.90
25933;DHT22;13731;51.166;4.474;2022-07-11T00:36:02;17.70;99.90
25933;DHT22;13731;51.166;4.474;2022-07-11T00:38:28;17.60;99.90
25933;DHT22;13731;51.166;4.474;2022-07-11T00:40:54;17.40;1.00
25933;DHT22;13731;51.166;4.474;2022-07-11T00:43:28;17.40;1.00
25933;DHT22;13731;51.166;4.474;2022-07-11T00:45:54;17.40;1.00
25933;DHT22;13731;51.166;4.474;2022-07-11T00:48:20;17.40;1.00
25933;DHT22;13731;51.166;4.474;2022-07-11T00:50:45;17.20;1.00
25933;DHT22;13731;51.166;4.474;2022-07-11T00:53:11;17.20;1.00
25933;DHT22;13731;51.166;4.474;2022-07-11T00:55:37;17.00;1.00
25933;DHT22;13731;51.166;4.474;2022-07-11T00:58:02;16.80;1.00
25933;DHT22;13731;51.166;4.474;2022-07-11T01:00:28;16.70;1.00
25933;DHT22;13731;51.166;4.474;2022-07-11T01:02:54;16.60;1.00
25933;DHT22;13731;51.166;4.474;2022-07-11T01:05:20;16.60;1.00
25933;DHT22;13731;51.166;4.474;2022-07-11T01:07:45;16.70;1.00
25933;DHT22;13731;51.166;4.474;2022-07-11T01:10:11;16.80;1.00
25933;DHT22;13731;51.166;4.474;2022-07-11T01:12:37;16.80;1.00
25933;DHT22;13731;51.166;4.474;2022-07-11T01:15:02;16.90;1.00
25933;DHT22;13731;51.166;4.474;2022-07-11T01:17:28;16.90;1.00
25933;DHT22;13731;51.166;4.474;2022-07-11T01:19:54;17.00;1.00
25933;DHT22;13731;51.166;4.474;2022-07-11T01:22:21;17.00;1.00
25933;DHT22;13731;51.166;4.474;2022-07-11T01:24:49;16.90;1.00
25933;DHT22;13731;51.166;4.474;2022-07-11T01:27:15;16.80;1.00
25933;DHT22;13731;51.166;4.474;2022-07-11T01:29:40;16.80;1.00
25933;DHT22;13731;51.166;4.474;2022-07-11T01:32:07;16.70;1.00
25933;DHT22;13731;51.166;4.474;2022-07-11T01:34:33;16.70;1.00
25933;DHT22;13731;51.166;4.474;2022-07-11T01:36:59;16.80;1.00
25933;DHT22;13731;51.166;4.474;2022-07-11T01:39:25;16.80;1.00
25933;DHT22;13731;51.166;4.474;2022-07-11T01:41:58;16.70;1.00
25933;DHT22;13731;51.166;4.474;2022-07-11T01:44:24;16.70;1.00
25933;DHT22;13731;51.166;4.474;2022-07-11T01:46:49;16.60;1.00
25933;DHT22;13731;51.166;4.474;2022-07-11T01:49:15;16.40;1.00
25933;DHT22;13731;51.166;4.474;2022-07-11T01:51:41;16.30;1.00
25933;DHT22;13731;51.166;4.474;2022-07-11T01:54:07;16.20;1.00
25933;DHT22;13731;51.166;4.474;2022-07-11T01:56:33;16.30;1.00
25933;DHT22;13731;51.166;4.474;2022-07-11T01:58:59;16.30;1.00
25933;DHT22;13731;51.166;4.474;2022-07-11T02:01:25;16.40;1.00
25933;DHT22;13731;51.166;4.474;2022-07-11T02:03:52;16.50;1.00
25933;DHT22;13731;51.166;4.474;2022-07-11T02:06:18;16.40;1.00
25933;DHT22;13731;51.166;4.474;2022-07-11T02:08:43;16.50;1.00
25933;DHT22;13731;51.166;4.474;2022-07-11T02:11:09;16.60;1.00
25933;DHT22;13731;51.166;4.474;2022-07-11T02:13:35;16.60;1.00
25933;DHT22;13731;51.166;4.474;2022-07-11T02:16:00;16.50;1.00
25933;DHT22;13731;51.166;4.474;2022-07-11T02:18:27;16.50;1.00
25933;DHT22;13731;51.166;4.474;2022-07-11T02:20:53;16.60;1.00
25933;DHT22;13731;51.166;4.474;2022-07-11T02:23:20;16.60;1.00
25933;DHT22;13731;51.166;4.474;2022-07-11T02:25:46;16.60;1.00
25933;DHT22;13731;51.166;4.474;2022-07-11T02:28:12;16.70;1.00
25933;DHT22;13731;51.166;4.474;2022-07-11T02:30:39;16.80;1.00
25933;DHT22;13731;51.166;4.474;2022-07-11T02:33:05;16.70;1.00
25933;DHT22;13731;51.166;4.474;2022-07-11T02:35:33;16.50;1.00
25933;DHT22;13731;51.166;4.474;2022-07-11T02:37:59;16.50;1.00
25933;DHT22;13731;51.166;4.474;2022-07-11T02:40:25;16.50;1.00
25933;DHT22;13731;51.166;4.474;2022-07-11T02:42:52;16.40;1.00
25933;DHT22;13731;51.166;4.474;2022-07-11T02:45:18;16.40;1.00
25933;DHT22;13731;51.166;4.474;2022-07-11T02:47:43;16.40;1.00
25933;DHT22;13731;51.166;4.474;2022-07-11T02:50:11;16.40;1.00
25933;DHT22;13731;51.166;4.474;2022-07-11T02:52:37;16.40;1.00
25933;DHT22;13731;51.166;4.474;2022-07-11T02:55:04;16.50;1.00
25933;DHT22;13731;51.166;4.474;2022-07-11T02:57:30;16.60;1.00
25933;DHT22;13731;51.166;4.474;2022-07-11T02:59:56;16.50;2.20
25933;DHT22;13731;51.166;4.474;2022-07-11T03:02:21;16.40;13.90
25933;DHT22;13731;51.166;4.474;2022-07-11T03:04:47;16.40;30.20
25933;DHT22;13731;51.166;4.474;2022-07-11T03:07:13;16.50;34.30
25933;DHT22;13731;51.166;4.474;2022-07-11T03:09:38;16.40;33.20
25933;DHT22;13731;51.166;4.474;2022-07-11T03:12:04;16.40;35.60
25933;DHT22;13731;51.166;4.474;2022-07-11T03:14:30;16.40;43.20
25933;DHT22;13731;51.166;4.474;2022-07-11T03:16:56;16.40;46.20
25933;DHT22;13731;51.166;4.474;2022-07-11T03:19:22;16.50;37.60
25933;DHT22;13731;51.166;4.474;2022-07-11T03:21:47;16.40;56.50
25933;DHT22;13731;51.166;4.474;2022-07-11T03:24:13;16.30;72.70
25933;DHT22;13731;51.166;4.474;2022-07-11T03:26:39;16.30;81.50
25933;DHT22;13731;51.166;4.474;2022-07-11T03:29:04;16.30;82.40
25933;DHT22;13731;51.166;4.474;2022-07-11T03:31:30;16.20;89.10
25933;DHT22;13731;51.166;4.474;2022-07-11T03:33:56;16.20;90.70
25933;DHT22;13731;51.166;4.474;2022-07-11T03:36:21;16.30;87.10
25933;DHT22;13731;51.166;4.474;2022-07-11T03:38:47;16.30;75.90
25933;DHT22;13731;51.166;4.474;2022-07-11T03:41:13;16.30;80.10
25933;DHT22;13731;51.166;4.474;2022-07-11T03:43:38;16.40;78.10
25933;DHT22;13731;51.166;4.474;2022-07-11T03:46:04;16.40;73.10
25933;DHT22;13731;51.166;4.474;2022-07-11T03:48:31;16.50;69.20
25933;DHT22;13731;51.166;4.474;2022-07-11T03:50:57;16.60;53.90
25933;DHT22;13731;51.166;4.474;2022-07-11T03:53:23;16.60;49.70
25933;DHT22;13731;51.166;4.474;2022-07-11T03:55:49;16.60;45.00
25933;DHT22;13731;51.166;4.474;2022-07-11T03:58:15;16.60;46.60
25933;DHT22;13731;51.166;4.474;2022-07-11T04:00:40;16.50;48.30
25933;DHT22;13731;51.166;4.474;2022-07-11T04:03:06;16.50;52.40
25933;DHT22;13731;51.166;4.474;2022-07-11T04:05:32;16.50;51.90
25933;DHT22;13731;51.166;4.474;2022-07-11T04:07:58;16.40;61.30
25933;DHT22;13731;51.166;4.474;2022-07-11T04:10:24;16.40;76.10
25933;DHT22;13731;51.166;4.474;2022-07-11T04:12:49;16.20;90.80
25933;DHT22;13731;51.166;4.474;2022-07-11T04:15:15;16.10;99.70
25933;DHT22;13731;51.166;4.474;2022-07-11T04:17:41;16.10;99.90
25933;DHT22;13731;51.166;4.474;2022-07-11T04:20:06;16.30;98.10
25933;DHT22;13731;51.166;4.474;2022-07-11T04:22:32;16.40;86.30
25933;DHT22;13731;51.166;4.474;2022-07-11T04:24:58;16.40;85.10
25933;DHT22;13731;51.166;4.474;2022-07-11T04:27:27;16.40;87.80
25933;DHT22;13731;51.166;4.474;2022-07-11T04:29:53;16.50;82.20
25933;DHT22;13731;51.166;4.474;2022-07-11T04:32:19;16.60;74.50
25933;DHT22;13731;51.166;4.474;2022-07-11T04:34:45;16.70;66.20
25933;DHT22;13731;51.166;4.474;2022-07-11T04:37:11;16.50;81.10
25933;DHT22;13731;51.166;4.474;2022-07-11T04:39:36;16.50;89.80
25933;DHT22;13731;51.166;4.474;2022-07-11T04:42:02;16.50;92.10
25933;DHT22;13731;51.166;4.474;2022-07-11T04:44:28;16.40;95.90
25933;DHT22;13731;51.166;4.474;2022-07-11T04:46:54;16.40;99.10
25933;DHT22;13731;51.166;4.474;2022-07-11T04:49:19;16.60;95.30
25933;DHT22;13731;51.166;4.474;2022-07-11T04:51:45;16.70;92.20
25933;DHT22;13731;51.166;4.474;2022-07-11T04:54:13;16.70;87.40
25933;DHT22;13731;51.166;4.474;2022-07-11T04:56:39;16.80;83.50
25933;DHT22;13731;51.166;4.474;2022-07-11T04:59:05;16.90;69.10
25933;DHT22;13731;51.166;4.474;2022-07-11T05:01:31;16.90;68.10
25933;DHT22;13731;51.166;4.474;2022-07-11T05:03:56;16.90;66.10
25933;DHT22;13731;51.166;4.474;2022-07-11T05:06:22;17.00;66.60
25933;DHT22;13731;51.166;4.474;2022-07-11T05:08:48;16.80;70.50
25933;DHT22;13731;51.166;4.474;2022-07-11T05:11:14;16.70;86.10
25933;DHT22;13731;51.166;4.474;2022-07-11T05:13:39;16.70;91.60
25933;DHT22;13731;51.166;4.474;2022-07-11T05:16:05;16.70;94.10
25933;DHT22;13731;51.166;4.474;2022-07-11T05:18:31;16.80;93.80
25933;DHT22;13731;51.166;4.474;2022-07-11T05:20:57;16.80;91.40
25933;DHT22;13731;51.166;4.474;2022-07-11T05:23:22;16.90;90.80
25933;DHT22;13731;51.166;4.474;2022-07-11T05:25:48;17.20;80.10
25933;DHT22;13731;51.166;4.474;2022-07-11T05:28:14;17.40;59.50
25933;DHT22;13731;51.166;4.474;2022-07-11T05:30:39;17.50;45.00
25933;DHT22;13731;51.166;4.474;2022-07-11T05:33:05;17.60;28.00
25933;DHT22;13731;51.166;4.474;2022-07-11T05:35:31;17.60;30.50
25933;DHT22;13731;51.166;4.474;2022-07-11T05:37:57;17.70;20.20
25933;DHT22;13731;51.166;4.474;2022-07-11T05:40:22;17.80;2.50
25933;DHT22;13731;51.166;4.474;2022-07-11T05:42:48;17.80;1.00
25933;DHT22;13731;51.166;4.474;2022-07-11T05:45:14;17.80;1.00
25933;DHT22;13731;51.166;4.474;2022-07-11T05:47:39;18.00;1.00
25933;DHT22;13731;51.166;4.474;2022-07-11T05:50:05;18.20;1.00
25933;DHT22;13731;51.166;4.474;2022-07-11T05:52:31;18.40;1.00
25933;DHT22;13731;51.166;4.474;2022-07-11T05:54:57;18.80;1.00
25933;DHT22;13731;51.166;4.474;2022-07-11T05:57:23;18.50;1.00
25933;DHT22;13731;51.166;4.474;2022-07-11T05:59:49;18.50;1.00
25933;DHT22;13731;51.166;4.474;2022-07-11T06:02:15;18.50;1.00
25933;DHT22;13731;51.166;4.474;2022-07-11T06:04:40;19.00;99.90
25933;DHT22;13731;51.166;4.474;2022-07-11T06:07:08;19.30;99.90
25933;DHT22;13731;51.166;4.474;2022-07-11T06:09:34;19.00;99.90
25933;DHT22;13731;51.166;4.474;2022-07-11T06:12:00;18.80;99.90
25933;DHT22;13731;51.166;4.474;2022-07-11T06:14:26;18.70;1.00
25933;DHT22;13731;51.166;4.474;2022-07-11T06:16:51;18.70;1.00
25933;DHT22;13731;51.166;4.474;2022-07-11T06:19:17;18.90;99.90
25933;DHT22;13731;51.166;4.474;2022-07-11T06:21:43;19.20;99.90
25933;DHT22;13731;51.166;4.474;2022-07-11T06:24:09;19.60;99.90
25933;DHT22;13731;51.166;4.474;2022-07-11T06:26:34;20.10;32.40
25933;DHT22;13731;51.166;4.474;2022-07-11T06:29:00;20.40;99.90
25933;DHT22;13731;51.166;4.474;2022-07-11T06:31:26;20.30;99.90
25933;DHT22;13731;51.166;4.474;2022-07-11T06:33:51;20.50;99.90
25933;DHT22;13731;51.166;4.474;2022-07-11T06:36:20;20.60;1.00
25933;DHT22;13731;51.166;4.474;2022-07-11T06:38:49;20.70;62.70
25933;DHT22;13731;51.166;4.474;2022-07-11T06:41:15;19.70;99.90
25933;DHT22;13731;51.166;4.474;2022-07-11T06:43:41;19.50;1.00
25933;DHT22;13731;51.166;4.474;2022-07-11T06:46:07;19.70;1.00
25933;DHT22;13731;51.166;4.474;2022-07-11T06:48:32;19.90;99.90
25933;DHT22;13731;51.166;4.474;2022-07-11T06:50:58;19.70;99.90
25933;DHT22;13731;51.166;4.474;2022-07-11T06:53:24;19.50;1.00
25933;DHT22;13731;51.166;4.474;2022-07-11T06:55:50;19.60;1.00
25933;DHT22;13731;51.166;4.474;2022-07-11T06:58:15;20.00;99.90
25933;DHT22;13731;51.166;4.474;2022-07-11T07:00:58;20.20;99.90
25933;DHT22;13731;51.166;4.474;2022-07-11T07:03:24;20.60;1.00
25933;DHT22;13731;51.166;4.474;2022-07-11T07:05:49;20.80;99.90
25933;DHT22;13731;51.166;4.474;2022-07-11T07:08:16;20.80;99.90
25933;DHT22;13731;51.166;4.474;2022-07-11T07:10:42;21.00;99.90
25933;DHT22;13731;51.166;4.474;2022-07-11T07:13:08;20.90;1.00
25933;DHT22;13731;51.166;4.474;2022-07-11T07:15:34;20.80;1.00
25933;DHT22;13731;51.166;4.474;2022-07-11T07:17:59;20.70;41.90
25933;DHT22;13731;51.166;4.474;2022-07-11T07:20:25;20.40;99.90
25933;DHT22;13731;51.166;4.474;2022-07-11T07:22:51;20.40;1.00
25933;DHT22;13731;51.166;4.474;2022-07-11T07:25:16;20.60;99.90
25933;DHT22;13731;51.166;4.474;2022-07-11T07:27:42;20.80;99.90
25933;DHT22;13731;51.166;4.474;2022-07-11T07:30:08;21.30;99.90
25933;DHT22;13731;51.166;4.474;2022-07-11T07:32:34;21.30;1.00
25933;DHT22;13731;51.166;4.474;2022-07-11T07:35:00;20.60;56.20
25933;DHT22;13731;51.166;4.474;2022-07-11T07:37:26;20.50;1.00
25933;DHT22;13731;51.166;4.474;2022-07-11T07:39:52;20.80;99.90
25933;DHT22;13731;51.166;4.474;2022-07-11T07:42:17;21.40;99.90
25933;DHT22;13731;51.166;4.474;2022-07-11T07:44:43;21.80;35.10
25933;DHT22;13731;51.166;4.474;2022-07-11T07:47:09;22.00;1.00
25933;DHT22;13731;51.166;4.474;2022-07-11T07:49:34;22.60;99.90
25933;DHT22;13731;51.166;4.474;2022-07-11T07:52:00;23.10;99.90
25933;DHT22;13731;51.166;4.474;2022-07-11T07:54:25;22.90;99.90
25933;DHT22;13731;51.166;4.474;2022-07-11T07:56:51;22.70;1.00
25933;DHT22;13731;51.166;4.474;2022-07-11T07:59:17;22.70;1.00
25933;DHT22;13731;51.166;4.474;2022-07-11T08:01:42;21.90;99.90
25933;DHT22;13731;51.166;4.474;2022-07-11T08:04:11;21.70;62.10
25933;DHT22;13731;51.166;4.474;2022-07-11T08:06:37;22.20;99.90
25933;DHT22;13731;51.166;4.474;2022-07-11T08:09:06;22.30;1.00
25933;DHT22;13731;51.166;4.474;2022-07-11T08:11:32;22.60;1.00
25933;DHT22;13731;51.166;4.474;2022-07-11T08:13:58;22.10;99.90
25933;DHT22;13731;51.166;4.474;2022-07-11T08:16:24;22.00;1.00
25933;DHT22;13731;51.166;4.474;2022-07-11T08:18:50;21.90;1.00
25933;DHT22;13731;51.166;4.474;2022-07-11T08:21:15;22.00;1.00
25933;DHT22;13731;51.166;4.474;2022-07-11T08:23:41;22.70;99.90
25933;DHT22;13731;51.166;4.474;2022-07-11T08:26:07;23.00;99.90
25933;DHT22;13731;51.166;4.474;2022-07-11T08:28:33;22.80;1.00
25933;DHT22;13731;51.166;4.474;2022-07-11T08:30:58;22.10;78.60
25933;DHT22;13731;51.166;4.474;2022-07-11T08:33:26;21.80;14.10
25933;DHT22;13731;51.166;4.474;2022-07-11T08:35:51;21.40;1.00
25933;DHT22;13731;51.166;4.474;2022-07-11T08:38:17;21.40;1.00
25933;DHT22;13731;51.166;4.474;2022-07-11T08:40:42;21.60;1.00
25933;DHT22;13731;51.166;4.474;2022-07-11T08:43:15;22.30;1.00
25933;DHT22;13731;51.166;4.474;2022-07-11T08:45:41;22.60;1.00
25933;DHT22;13731;51.166;4.474;2022-07-11T08:48:07;22.40;1.00
25933;DHT22;13731;51.166;4.474;2022-07-11T08:50:32;22.00;99.90
25933;DHT22;13731;51.166;4.474;2022-07-11T08:52:58;22.40;99.90
25933;DHT22;13731;51.166;4.474;2022-07-11T08:55:24;21.80;99.90
25933;DHT22;13731;51.166;4.474;2022-07-11T08:57:50;22.20;1.00
25933;DHT22;13731;51.166;4.474;2022-07-11T09:00:16;22.10;1.00
25933;DHT22;13731;51.166;4.474;2022-07-11T09:02:42;22.70;99.90
25933;DHT22;13731;51.166;4.474;2022-07-11T09:05:10;23.40;1.00
25933;DHT22;13731;51.166;4.474;2022-07-11T09:07:46;24.40;1.00
25933;DHT22;13731;51.166;4.474;2022-07-11T09:10:12;25.00;99.90
25933;DHT22;13731;51.166;4.474;2022-07-11T09:12:57;24.80;99.90
25933;DHT22;13731;51.166;4.474;2022-07-11T09:15:38;24.20;99.90
25933;DHT22;13731;51.166;4.474;2022-07-11T09:18:06;24.70;1.00
25933;DHT22;13731;51.166;4.474;2022-07-11T09:23:52;25.20;1.00
25933;DHT22;13731;51.166;4.474;2022-07-11T09:26:38;25.20;1.00
25933;DHT22;13731;51.166;4.474;2022-07-11T09:29:07;24.10;1.00
25933;DHT22;13731;51.166;4.474;2022-07-11T09:31:35;24.00;1.00
25933;DHT22;13731;51.166;4.474;2022-07-11T09:34:11;24.00;1.00
25933;DHT22;13731;51.166;4.474;2022-07-11T09:36:38;25.00;99.90
25933;DHT22;13731;51.166;4.474;2022-07-11T09:39:05;25.10;99.90
25933;DHT22;13731;51.166;4.474;2022-07-11T09:41:34;24.10;99.90
25933;DHT22;13731;51.166;4.474;2022-07-11T09:44:33;23.80;99.90
25933;DHT22;13731;51.166;4.474;2022-07-11T09:46:56;24.20;9.90
25933;DHT22;13731;51.166;4.474;2022-07-11T09:49:33;25.20;99.90
25933;DHT22;13731;51.166;4.474;2022-07-11T09:54:34;26.40;25.80
25933;DHT22;13731;51.166;4.474;2022-07-11T09:57:09;26.90;1.00
25933;DHT22;13731;51.166;4.474;2022-07-11T09:59:36;27.00;1.00
25933;DHT22;13731;51.166;4.474;2022-07-11T10:02:03;27.00;99.90
25933;DHT22;13731;51.166;4.474;2022-07-11T10:04:28;26.40;1.00
25933;DHT22;13731;51.166;4.474;2022-07-11T10:06:54;25.80;98.50
25933;DHT22;13731;51.166;4.474;2022-07-11T10:09:20;25.80;99.90
25933;DHT22;13731;51.166;4.474;2022-07-11T10:11:46;26.20;1.00
25933;DHT22;13731;51.166;4.474;2022-07-11T10:14:11;26.80;1.00
25933;DHT22;13731;51.166;4.474;2022-07-11T10:16:40;26.60;1.00
25933;DHT22;13731;51.166;4.474;2022-07-11T10:19:24;26.70;1.00
25933;DHT22;13731;51.166;4.474;2022-07-11T10:21:55;26.20;1.00
25933;DHT22;13731;51.166;4.474;2022-07-11T10:24:26;25.30;76.10
25933;DHT22;13731;51.166;4.474;2022-07-11T10:27:09;26.30;1.00
25933;DHT22;13731;51.166;4.474;2022-07-11T10:29:48;27.40;99.90
25933;DHT22;13731;51.166;4.474;2022-07-11T10:32:15;27.70;99.90
25933;DHT22;13731;51.166;4.474;2022-07-11T10:34:42;26.30;99.90
25933;DHT22;13731;51.166;4.474;2022-07-11T10:37:08;26.60;1.00
25933;DHT22;13731;51.166;4.474;2022-07-11T10:39:37;28.80;99.90
25933;DHT22;13731;51.166;4.474;2022-07-11T10:42:03;30.80;1.00
25933;DHT22;13731;51.166;4.474;2022-07-11T10:47:34;27.30;99.90
25933;DHT22;13731;51.166;4.474;2022-07-11T10:50:06;27.70;99.90
25933;DHT22;13731;51.166;4.474;2022-07-11T10:52:33;30.30;36.90
25933;DHT22;13731;51.166;4.474;2022-07-11T11:00:28;29.50;1.00
25933;DHT22;13731;51.166;4.474;2022-07-11T11:13:27;29.10;1.00
25933;DHT22;13731;51.166;4.474;2022-07-11T11:15:53;30.30;1.00
25933;DHT22;13731;51.166;4.474;2022-07-11T11:23:23;35.00;1.00
25933;DHT22;13731;51.166;4.474;2022-07-11T11:25:49;33.10;1.00
25933;DHT22;13731;51.166;4.474;2022-07-11T11:28:19;35.00;1.00
25933;DHT22;13731;51.166;4.474;2022-07-11T11:30:59;35.10;1.00
25933;DHT22;13731;51.166;4.474;2022-07-11T11:33:26;33.60;1.00
25933;DHT22;13731;51.166;4.474;2022-07-11T11:35:59;31.80;1.00
25933;DHT22;13731;51.166;4.474;2022-07-11T11:38:24;30.90;1.00
25933;DHT22;13731;51.166;4.474;2022-07-11T11:40:50;31.40;1.00
25933;DHT22;13731;51.166;4.474;2022-07-11T11:43:19;27.50;1.00
25933;DHT22;13731;51.166;4.474;2022-07-11T11:45:51;26.40;99.90
25933;DHT22;13731;51.166;4.474;2022-07-11T11:48:32;25.90;1.00
25933;DHT22;13731;51.166;4.474;2022-07-11T11:56:15;30.00;12.40
25933;DHT22;13731;51.166;4.474;2022-07-11T11:58:44;30.00;1.00
25933;DHT22;13731;51.166;4.474;2022-07-11T12:01:13;32.00;1.00
25933;DHT22;13731;51.166;4.474;2022-07-11T12:03:55;33.50;1.00
25933;DHT22;13731;51.166;4.474;2022-07-11T12:06:21;33.90;1.00
25933;DHT22;13731;51.166;4.474;2022-07-11T12:08:48;36.60;1.00
25933;DHT22;13731;51.166;4.474;2022-07-11T12:11:15;38.20;1.00
25933;DHT22;13731;51.166;4.474;2022-07-11T12:13:41;38.10;1.00
25933;DHT22;13731;51.166;4.474;2022-07-11T12:16:13;37.60;1.00
25933;DHT22;13731;51.166;4.474;2022-07-11T12:18:58;35.00;1.00
25933;DHT22;13731;51.166;4.474;2022-07-11T12:21:24;36.80;1.00
25933;DHT22;13731;51.166;4.474;2022-07-11T12:23:50;34.60;1.00
25933;DHT22;13731;51.166;4.474;2022-07-11T12:26:16;32.50;1.00
25933;DHT22;13731;51.166;4.474;2022-07-11T12:31:26;30.30;1.00
25933;DHT22;13731;51.166;4.474;2022-07-11T12:34:04;31.00;1.00
25933;DHT22;13731;51.166;4.474;2022-07-11T12:36:33;34.40;1.00
25933;DHT22;13731;51.166;4.474;2022-07-11T12:38:58;31.90;1.00
25933;DHT22;13731;51.166;4.474;2022-07-11T12:41:24;31.50;1.00
25933;DHT22;13731;51.166;4.474;2022-07-11T12:43:51;31.50;1.00
25933;DHT22;13731;51.166;4.474;2022-07-11T12:46:35;31.60;1.00
25933;DHT22;13731;51.166;4.474;2022-07-11T12:49:02;32.10;1.00
25933;DHT22;13731;51.166;4.474;2022-07-11T12:53:59;35.30;1.00
25933;DHT22;13731;51.166;4.474;2022-07-11T12:56:24;34.70;1.00
25933;DHT22;13731;51.166;4.474;2022-07-11T12:58:50;33.00;1.00
25933;DHT22;13731;51.166;4.474;2022-07-11T13:01:16;33.70;1.00
25933;DHT22;13731;51.166;4.474;2022-07-11T13:03:41;35.50;1.00
25933;DHT22;13731;51.166;4.474;2022-07-11T13:06:07;36.30;1.00
25933;DHT22;13731;51.166;4.474;2022-07-11T13:08:34;39.00;1.00
25933;DHT22;13731;51.166;4.474;2022-07-11T13:11:14;36.50;1.00
25933;DHT22;13731;51.166;4.474;2022-07-11T13:13:40;35.20;1.00
25933;DHT22;13731;51.166;4.474;2022-07-11T13:16:06;33.60;1.00
25933;DHT22;13731;51.166;4.474;2022-07-11T13:18:33;35.30;1.00
25933;DHT22;13731;51.166;4.474;2022-07-11T13:20:59;35.70;1.00
25933;DHT22;13731;51.166;4.474;2022-07-11T13:23:25;38.50;1.00
25933;DHT22;13731;51.166;4.474;2022-07-11T13:25:50;36.90;1.00
25933;DHT22;13731;51.166;4.474;2022-07-11T13:28:16;36.40;1.00
25933;DHT22;13731;51.166;4.474;2022-07-11T13:30:42;36.20;1.00
25933;DHT22;13731;51.166;4.474;2022-07-11T13:33:07;37.10;1.00
25933;DHT22;13731;51.166;4.474;2022-07-11T13:35:33;36.10;1.00
25933;DHT22;13731;51.166;4.474;2022-07-11T13:37:59;35.50;1.00
25933;DHT22;13731;51.166;4.474;2022-07-11T13:40:24;35.60;1.00
25933;DHT22;13731;51.166;4.474;2022-07-11T13:42:51;36.20;1.00
25933;DHT22;13731;51.166;4.474;2022-07-11T13:45:18;36.70;1.00
25933;DHT22;13731;51.166;4.474;2022-07-11T13:47:44;38.40;1.00
25933;DHT22;13731;51.166;4.474;2022-07-11T13:50:09;38.80;1.00
25933;DHT22;13731;51.166;4.474;2022-07-11T13:52:35;38.60;1.00
25933;DHT22;13731;51.166;4.474;2022-07-11T13:55:01;36.20;1.00
25933;DHT22;13731;51.166;4.474;2022-07-11T13:57:28;38.70;1.00
25933;DHT22;13731;51.166;4.474;2022-07-11T13:59:53;38.40;1.00
25933;DHT22;13731;51.166;4.474;2022-07-11T14:02:20;37.80;1.00
25933;DHT22;13731;51.166;4.474;2022-07-11T14:04:46;38.30;1.00
25933;DHT22;13731;51.166;4.474;2022-07-11T14:07:12;37.20;1.00
25933;DHT22;13731;51.166;4.474;2022-07-11T14:09:38;36.50;1.00
25933;DHT22;13731;51.166;4.474;2022-07-11T14:12:04;37.00;1.00
25933;DHT22;13731;51.166;4.474;2022-07-11T14:14:30;35.90;1.00
25933;DHT22;13731;51.166;4.474;2022-07-11T14:16:56;35.30;1.00
25933;DHT22;13731;51.166;4.474;2022-07-11T14:19:22;35.20;1.00
25933;DHT22;13731;51.166;4.474;2022-07-11T14:21:48;36.60;1.00
25933;DHT22;13731;51.166;4.474;2022-07-11T14:24:13;37.60;1.00
25933;DHT22;13731;51.166;4.474;2022-07-11T14:26:39;39.50;1.00
25933;DHT22;13731;51.166;4.474;2022-07-11T14:29:05;40.10;1.00
25933;DHT22;13731;51.166;4.474;2022-07-11T14:31:31;36.50;1.00
25933;DHT22;13731;51.166;4.474;2022-07-11T14:33:57;34.30;1.00
25933;DHT22;13731;51.166;4.474;2022-07-11T14:36:23;36.10;1.00
25933;DHT22;13731;51.166;4.474;2022-07-11T14:38:52;38.20;1.00
25933;DHT22;13731;51.166;4.474;2022-07-11T14:41:18;40.20;1.00
25933;DHT22;13731;51.166;4.474;2022-07-11T14:43:44;38.40;1.00
25933;DHT22;13731;51.166;4.474;2022-07-11T14:46:12;36.90;1.00
25933;DHT22;13731;51.166;4.474;2022-07-11T14:48:38;36.80;1.00
25933;DHT22;13731;51.166;4.474;2022-07-11T14:51:05;37.00;1.00
25933;DHT22;13731;51.166;4.474;2022-07-11T14:53:30;36.90;1.00
25933;DHT22;13731;51.166;4.474;2022-07-11T14:55:56;36.80;1.00
25933;DHT22;13731;51.166;4.474;2022-07-11T14:58:22;35.00;1.00
25933;DHT22;13731;51.166;4.474;2022-07-11T15:00:48;35.70;1.00
25933;DHT22;13731;51.166;4.474;2022-07-11T15:03:13;33.80;1.00
25933;DHT22;13731;51.166;4.474;2022-07-11T15:05:58;33.00;1.00
25933;DHT22;13731;51.166;4.474;2022-07-11T15:08:24;32.70;1.00
25933;DHT22;13731;51.166;4.474;2022-07-11T15:11:08;35.50;1.00
25933;DHT22;13731;51.166;4.474;2022-07-11T15:13:53;37.20;1.00
25933;DHT22;13731;51.166;4.474;2022-07-11T15:16:19;37.30;1.00
25933;DHT22;13731;51.166;4.474;2022-07-11T15:18:44;38.20;1.00
25933;DHT22;13731;51.166;4.474;2022-07-11T15:21:10;38.30;1.00
25933;DHT22;13731;51.166;4.474;2022-07-11T15:23:36;38.30;1.00
25933;DHT22;13731;51.166;4.474;2022-07-11T15:26:02;38.30;1.00
25933;DHT22;13731;51.166;4.474;2022-07-11T15:28:28;36.40;1.00
25933;DHT22;13731;51.166;4.474;2022-07-11T15:30:54;36.00;1.00
25933;DHT22;13731;51.166;4.474;2022-07-11T15:33:19;34.00;1.00
25933;DHT22;13731;51.166;4.474;2022-07-11T15:35:48;32.30;1.00
25933;DHT22;13731;51.166;4.474;2022-07-11T15:38:13;31.60;1.00
25933;DHT22;13731;51.166;4.474;2022-07-11T15:40:39;32.70;1.00
25933;DHT22;13731;51.166;4.474;2022-07-11T15:43:05;35.50;1.00
25933;DHT22;13731;51.166;4.474;2022-07-11T15:45:30;35.80;1.00
25933;DHT22;13731;51.166;4.474;2022-07-11T15:47:56;35.10;1.00
25933;DHT22;13731;51.166;4.474;2022-07-11T15:50:22;35.30;1.00
25933;DHT22;13731;51.166;4.474;2022-07-11T15:52:48;35.70;1.00
25933;DHT22;13731;51.166;4.474;2022-07-11T15:55:14;34.70;1.00
25933;DHT22;13731;51.166;4.474;2022-07-11T15:57:39;34.70;1.00
25933;DHT22;13731;51.166;4.474;2022-07-11T16:00:05;33.70;1.00
25933;DHT22;13731;51.166;4.474;2022-07-11T16:02:38;35.10;1.00
25933;DHT22;13731;51.166;4.474;2022-07-11T16:05:04;34.60;1.00
25933;DHT22;13731;51.166;4.474;2022-07-11T16:07:30;34.00;1.00
25933;DHT22;13731;51.166;4.474;2022-07-11T16:09:56;33.40;1.00
25933;DHT22;13731;51.166;4.474;2022-07-11T16:12:22;33.80;1.00
25933;DHT22;13731;51.166;4.474;2022-07-11T16:14:48;35.70;1.00
25933;DHT22;13731;51.166;4.474;2022-07-11T16:17:13;35.80;1.00
25933;DHT22;13731;51.166;4.474;2022-07-11T16:19:39;35.70;1.00